This is the latest recevied weather packets stored in our database for station/object GW1495. If no packets are shown the sender has not sent any weather packets the latest 10 day(s).
| Time | Temp. | Humidity | Pressure | Rain* | Wind** | Luminosity | Snow |
|---|---|---|---|---|---|---|---|
| 1777533490 | 11.11° C | 99% | 1016.9 hPa | 0 mm | - | - | - |
| 1777533164 | 11.11° C | 99% | 1017.2 hPa | 0 mm | - | - | - |
| 1777529177 | 11.67° C | 99% | 1017.2 hPa | 0 mm | - | - | - |
| 1777525575 | 11.11° C | 99% | 1017.6 hPa | 0 mm | - | - | - |
| 1777523807 | 11.11° C | 99% | 1017.6 hPa | 0 mm | - | - | - |
| 1777522339 | 11.11° C | 99% | 1017.6 hPa | 0 mm | - | - | - |
| 1777519854 | 11.11° C | 99% | 1017.9 hPa | 13.97 mm | - | - | - |
| 1777518740 | 11.11° C | 99% | 1017.9 hPa | 13.97 mm | - | - | - |
| 1777518380 | 11.11° C | 99% | 1017.9 hPa | 13.97 mm | - | - | - |
| 1777515869 | 11.67° C | 98% | 1017.9 hPa | 13.97 mm | - | - | - |
| 1777515498 | 11.67° C | 98% | 1017.9 hPa | 13.97 mm | - | - | - |
| 1777515131 | 11.67° C | 98% | 1017.9 hPa | 13.97 mm | - | - | - |
| 1777512973 | 12.22° C | 97% | 1017.6 hPa | 13.97 mm | - | - | - |
| 1777507957 | 15.56° C | 96% | 1016.2 hPa | 13.97 mm | - | - | - |
| 1777507230 | 16.11° C | 95% | 1016.2 hPa | 13.97 mm | - | - | - |
| 1777506139 | 16.11° C | 95% | 1015.5 hPa | 13.97 mm | - | - | - |
| 1777500023 | 17.78° C | 94% | 1014.2 hPa | 13.21 mm | - | - | - |
| 1777497889 | 19.44° C | 92% | 1012.8 hPa | 10.41 mm | - | - | - |
| 1777492106 | 23.33° C | 71% | 1012.8 hPa | 1.52 mm | - | - | - |
| 1777491380 | 22.78° C | 80% | 1012.8 hPa | 1.52 mm | - | - | - |
| 1777485267 | 20.56° C | 83% | 1013.8 hPa | 1.52 mm | - | - | - |
| 1777481668 | 21.11° C | 81% | 1014.9 hPa | 1.52 mm | - | - | - |
| 1777480578 | 20° C | 86% | 1015.2 hPa | 1.52 mm | - | - | - |
| 1777480229 | 20.56° C | 82% | 1015.2 hPa | 1.52 mm | - | - | - |
| 1777477711 | 20° C | 88% | 1015.5 hPa | 1.52 mm | - | - | - |
* Rain since midnight (hover to see other rain measurements)
** Current wind speed in m/s (hover to see current wind gust speed)